Time;durP1;ratioP1;P1;durP2;ratioP2;P2;SDS_P1;SDS_P2;PMS_P1;PMS_P2;Temp;Humidity;BMP_temperature;BMP_pressure;BME280_temperature;BME280_humidity;BME280_pressure;Samples;Min_cycle;Max_cycle;Signal;HPM_P1;HPM_P2
2021/03/03 00:01:35;;;;;;;;;;;3.30;99.90;;;;;;5015956;28;19909;-89
2021/03/03 00:04:07;;;;;;;;;;;3.20;99.90;;;;;;5019319;28;19916;-90
2021/03/03 00:06:34;;;;;;;;;;;3.20;99.90;;;;;;5014415;28;19913;-89
2021/03/03 00:09:02;;;;;;;;;;;3.20;99.90;;;;;;5021653;28;19910;-90
2021/03/03 00:11:35;;;;;;;;;;;3.10;99.90;;;;;;5025196;28;19959;-90
2021/03/03 00:14:03;;;;;;;;;;;3.10;99.90;;;;;;5018923;28;20489;-90
2021/03/03 00:16:29;;;;;;;;;;;3.10;99.90;;;;;;5016950;28;19916;-90
2021/03/03 00:19:12;;;;;;;;;;;3.10;99.90;;;;;;5021493;28;19909;-90
2021/03/03 00:21:50;;;;;;;;;;;3.00;99.90;;;;;;5022348;28;19909;-90
2021/03/03 00:24:23;;;;;;;;;;;3.00;99.90;;;;;;5039260;28;19978;-89
2021/03/03 00:26:50;;;;;;;;;;;3.00;99.90;;;;;;5039016;28;19920;-89
2021/03/03 00:29:19;;;;;;;;;;;3.00;99.90;;;;;;5016551;28;19913;-90
2021/03/03 00:31:47;;;;;;;;;;;2.90;99.90;;;;;;5034245;28;20386;-90
2021/03/03 00:34:13;;;;;;;;;;;2.90;99.90;;;;;;5021782;28;19916;-90
2021/03/03 00:36:44;;;;;;;;;;;2.90;99.90;;;;;;5020826;28;19909;-90
2021/03/03 00:39:23;;;;;;;;;;;2.90;99.90;;;;;;5035858;28;19916;-90
2021/03/03 00:41:48;;;;;;;;;;;2.90;99.90;;;;;;5018333;28;20282;-89
2021/03/03 00:44:19;;;;;;;;;;;2.90;99.90;;;;;;5034204;28;19992;-89
2021/03/03 00:46:49;;;;;;;;;;;2.90;99.90;;;;;;5023898;28;19917;-89
2021/03/03 00:49:18;;;;;;;;;;;2.90;99.90;;;;;;4998330;28;20363;-88
2021/03/03 00:51:44;;;;;;;;;;;2.80;99.90;;;;;;4995379;28;19914;-89
2021/03/03 00:54:17;;;;;;;;;;;2.80;99.90;;;;;;4979515;28;19933;-89
2021/03/03 00:56:50;;;;;;;;;;;2.80;99.90;;;;;;4987911;28;19944;-89
2021/03/03 00:59:22;;;;;;;;;;;2.80;99.90;;;;;;4999599;28;20001;-89
2021/03/03 01:01:53;;;;;;;;;;;2.80;99.90;;;;;;4995346;28;19910;-89
2021/03/03 01:04:35;;;;;;;;;;;2.80;99.90;;;;;;4996473;28;19914;-89
2021/03/03 01:07:02;;;;;;;;;;;2.80;99.90;;;;;;4996921;28;19925;-89
2021/03/03 01:09:27;;;;;;;;;;;2.70;99.90;;;;;;4996657;28;19910;-90
2021/03/03 01:11:58;;;;;;;;;;;2.70;99.90;;;;;;4996950;28;19909;-89
2021/03/03 01:14:29;;;;;;;;;;;2.70;99.90;;;;;;4997062;28;19917;-89
2021/03/03 01:16:54;;;;;;;;;;;2.70;99.90;;;;;;4994225;28;20271;-90
2021/03/03 01:19:25;;;;;;;;;;;2.70;99.90;;;;;;4993689;28;19914;-89
2021/03/03 01:21:55;;;;;;;;;;;2.70;99.90;;;;;;4963060;28;19957;-89
2021/03/03 01:24:21;;;;;;;;;;;2.70;99.90;;;;;;4996674;28;19965;-88
2021/03/03 01:26:48;;;;;;;;;;;2.70;99.90;;;;;;4958059;29;19919;-89
2021/03/03 01:29:17;;;;;;;;;;;2.60;99.90;;;;;;4941914;29;19910;-90
2021/03/03 01:31:48;;;;;;;;;;;2.60;99.90;;;;;;4959751;28;20000;-90
2021/03/03 01:34:16;;;;;;;;;;;2.60;99.90;;;;;;4976645;28;19910;-90
2021/03/03 01:36:45;;;;;;;;;;;2.60;99.90;;;;;;4980582;28;19917;-90
2021/03/03 01:39:16;;;;;;;;;;;2.50;99.90;;;;;;4922773;29;19958;-89
2021/03/03 01:41:50;;;;;;;;;;;2.50;99.90;;;;;;4939014;29;20015;-90
2021/03/03 01:44:15;;;;;;;;;;;2.50;99.90;;;;;;4919427;29;19941;-89
2021/03/03 01:49:43;;;;;;;;;;;2.50;99.90;;;;;;4943219;29;20078;-90
2021/03/03 01:52:15;;;;;;;;;;;2.40;99.90;;;;;;4917491;29;19911;-90
2021/03/03 01:54:49;;;;;;;;;;;2.40;99.90;;;;;;4923304;29;19942;-89
2021/03/03 01:57:18;;;;;;;;;;;2.40;99.90;;;;;;4918966;29;19923;-90
2021/03/03 01:59:48;;;;;;;;;;;2.40;99.90;;;;;;4938439;29;19914;-89
2021/03/03 02:02:16;;;;;;;;;;;2.40;99.90;;;;;;4917471;29;19943;-90
2021/03/03 02:04:42;;;;;;;;;;;2.40;99.90;;;;;;5017235;28;20356;-89
2021/03/03 02:07:16;;;;;;;;;;;2.40;99.90;;;;;;5015004;28;20278;-89
2021/03/03 02:09:54;;;;;;;;;;;2.30;99.90;;;;;;5017037;28;19949;-88
2021/03/03 02:12:40;;;;;;;;;;;2.40;99.90;;;;;;5016633;28;19996;-89
2021/03/03 02:15:14;;;;;;;;;;;2.30;99.90;;;;;;5018726;28;19937;-89
2021/03/03 02:17:42;;;;;;;;;;;2.30;99.90;;;;;;5019431;28;20003;-89
2021/03/03 02:20:11;;;;;;;;;;;2.30;99.90;;;;;;5018942;28;19932;-88
2021/03/03 02:23:06;;;;;;;;;;;2.30;99.90;;;;;;5035453;28;19955;-90
2021/03/03 02:25:40;;;;;;;;;;;2.30;99.90;;;;;;5019731;28;19940;-89
2021/03/03 02:28:10;;;;;;;;;;;2.30;99.90;;;;;;5016353;28;20006;-89
2021/03/03 02:30:45;;;;;;;;;;;2.30;99.90;;;;;;5018756;28;20294;-89
2021/03/03 02:33:19;;;;;;;;;;;2.30;99.90;;;;;;5019331;28;19913;-89
2021/03/03 02:35:49;;;;;;;;;;;2.20;99.90;;;;;;5019135;28;19913;-89
2021/03/03 02:38:18;;;;;;;;;;;2.20;99.90;;;;;;5023437;28;19995;-89
2021/03/03 02:40:47;;;;;;;;;;;2.20;99.90;;;;;;5038958;28;20354;-89
2021/03/03 02:43:39;;;;;;;;;;;2.20;99.90;;;;;;5056101;28;19909;-89
2021/03/03 02:46:11;;;;;;;;;;;2.20;99.90;;;;;;5051129;28;20011;-89
2021/03/03 02:48:42;;;;;;;;;;;2.20;99.90;;;;;;5038382;28;19919;-89
2021/03/03 02:51:14;;;;;;;;;;;2.10;99.90;;;;;;5038636;28;19913;-89
2021/03/03 02:53:52;;;;;;;;;;;2.10;99.90;;;;;;5034617;28;20310;-89
2021/03/03 02:56:25;;;;;;;;;;;2.10;99.90;;;;;;5036211;28;19960;-89
2021/03/03 02:59:01;;;;;;;;;;;2.10;99.90;;;;;;5038733;28;19923;-89
2021/03/03 03:01:30;;;;;;;;;;;2.10;99.90;;;;;;5055940;28;19909;-89
2021/03/03 03:04:01;;;;;;;;;;;2.10;99.90;;;;;;5038142;28;19909;-89
2021/03/03 03:06:29;;;;;;;;;;;2.10;99.90;;;;;;5050097;28;20107;-89
2021/03/03 03:08:59;;;;;;;;;;;2.10;99.90;;;;;;5038662;28;19908;-90
2021/03/03 03:11:32;;;;;;;;;;;2.00;99.90;;;;;;5032403;28;19933;-88
2021/03/03 03:14:15;;;;;;;;;;;2.00;99.90;;;;;;5038135;28;19909;-89
2021/03/03 03:16:42;;;;;;;;;;;2.00;99.90;;;;;;5038576;28;19916;-88
2021/03/03 03:19:19;;;;;;;;;;;2.00;99.90;;;;;;5034779;28;20281;-88
2021/03/03 03:21:51;;;;;;;;;;;2.00;99.90;;;;;;5038346;28;20346;-88
2021/03/03 03:24:22;;;;;;;;;;;2.00;99.90;;;;;;5037816;28;19916;-89
2021/03/03 03:26:48;;;;;;;;;;;2.00;99.90;;;;;;5038465;28;19946;-89
2021/03/03 03:29:16;;;;;;;;;;;2.00;99.90;;;;;;5053147;28;19909;-89
2021/03/03 03:31:43;;;;;;;;;;;2.10;99.90;;;;;;5039070;28;20380;-89
2021/03/03 03:34:21;;;;;;;;;;;2.00;99.90;;;;;;5037777;28;19957;-87
2021/03/03 03:36:50;;;;;;;;;;;2.00;99.90;;;;;;5037226;28;19909;-88
2021/03/03 03:39:18;;;;;;;;;;;1.90;99.90;;;;;;5032504;28;19909;-88
2021/03/03 03:41:51;;;;;;;;;;;1.90;99.90;;;;;;5038002;28;19909;-88
2021/03/03 03:44:20;;;;;;;;;;;1.90;99.90;;;;;;5041246;28;19955;-89
2021/03/03 03:46:48;;;;;;;;;;;1.90;99.90;;;;;;5040862;28;19959;-87
2021/03/03 03:49:18;;;;;;;;;;;1.90;99.90;;;;;;5013545;28;19913;-88
2021/03/03 03:51:53;;;;;;;;;;;1.90;99.90;;;;;;5001028;28;19910;-88
2021/03/03 03:54:22;;;;;;;;;;;1.90;99.90;;;;;;5000877;28;19916;-88
2021/03/03 03:56:48;;;;;;;;;;;1.90;99.90;;;;;;4977617;28;20287;-88
2021/03/03 03:59:16;;;;;;;;;;;1.80;99.90;;;;;;4997273;28;19917;-88
2021/03/03 04:01:42;;;;;;;;;;;1.90;99.90;;;;;;4996976;28;19944;-89
2021/03/03 04:04:16;;;;;;;;;;;1.80;99.90;;;;;;5001086;28;20000;-88
2021/03/03 04:06:45;;;;;;;;;;;1.80;99.90;;;;;;5000910;28;20385;-88
2021/03/03 04:09:14;;;;;;;;;;;1.90;99.90;;;;;;4999025;28;19917;-89
2021/03/03 04:11:39;;;;;;;;;;;1.90;99.90;;;;;;5002474;28;20402;-88
2021/03/03 04:14:20;;;;;;;;;;;1.90;99.90;;;;;;4997682;28;20012;-88
2021/03/03 04:16:46;;;;;;;;;;;1.90;99.90;;;;;;5001388;28;19920;-87
2021/03/03 04:19:14;;;;;;;;;;;1.90;99.90;;;;;;5003000;28;19910;-89
2021/03/03 04:21:44;;;;;;;;;;;1.90;99.90;;;;;;5050915;28;19909;-89
2021/03/03 04:24:18;;;;;;;;;;;1.90;99.90;;;;;;5038495;28;19916;-88
2021/03/03 04:26:43;;;;;;;;;;;1.90;99.90;;;;;;5021029;28;19968;-89
2021/03/03 04:29:18;;;;;;;;;;;1.90;99.90;;;;;;5034497;28;19968;-89
2021/03/03 04:32:05;;;;;;;;;;;1.90;99.90;;;;;;5037113;28;19972;-88
2021/03/03 04:34:38;;;;;;;;;;;1.90;99.90;;;;;;5015865;28;20365;-89
2021/03/03 04:37:10;;;;;;;;;;;1.90;99.90;;;;;;5032950;28;19909;-89
2021/03/03 04:39:38;;;;;;;;;;;1.90;99.90;;;;;;4980323;28;19911;-89
2021/03/03 04:42:12;;;;;;;;;;;1.90;99.90;;;;;;4980232;28;19910;-88
2021/03/03 04:44:41;;;;;;;;;;;1.90;99.90;;;;;;4981122;28;19914;-89
2021/03/03 04:47:08;;;;;;;;;;;1.90;99.90;;;;;;4981115;28;19926;-89
2021/03/03 04:49:34;;;;;;;;;;;1.90;99.90;;;;;;4980812;28;19910;-88
2021/03/03 04:52:03;;;;;;;;;;;1.90;99.90;;;;;;4974774;28;19910;-88
2021/03/03 04:54:34;;;;;;;;;;;1.90;99.90;;;;;;4940069;29;19911;-88
2021/03/03 04:57:01;;;;;;;;;;;1.90;99.90;;;;;;4939786;29;20022;-88
2021/03/03 04:59:28;;;;;;;;;;;1.90;99.90;;;;;;4935292;29;19911;-89
2021/03/03 05:02:02;;;;;;;;;;;1.90;99.90;;;;;;4931470;29;19942;-88
2021/03/03 05:04:34;;;;;;;;;;;1.90;99.90;;;;;;4936024;29;20268;-89
2021/03/03 05:07:02;;;;;;;;;;;1.90;99.90;;;;;;4954424;29;19922;-89
2021/03/03 05:09:28;;;;;;;;;;;2.00;99.90;;;;;;4963909;28;19911;-90
2021/03/03 05:11:59;;;;;;;;;;;2.00;99.90;;;;;;4977292;28;19981;-89
2021/03/03 05:14:25;;;;;;;;;;;2.00;99.90;;;;;;4960389;28;19934;-88
2021/03/03 05:17:00;;;;;;;;;;;2.00;99.90;;;;;;4959372;28;20271;-88
2021/03/03 05:19:31;;;;;;;;;;;2.00;99.90;;;;;;4960725;28;19952;-88
2021/03/03 05:22:08;;;;;;;;;;;2.00;99.90;;;;;;4960841;28;19917;-88
2021/03/03 05:24:34;;;;;;;;;;;2.10;99.90;;;;;;4959447;28;20335;-88
2021/03/03 05:27:03;;;;;;;;;;;2.10;99.90;;;;;;4976708;28;20008;-89
2021/03/03 05:29:31;;;;;;;;;;;2.10;99.90;;;;;;4973773;28;19916;-89
2021/03/03 05:32:05;;;;;;;;;;;2.10;99.90;;;;;;4973406;28;19982;-88
2021/03/03 05:34:30;;;;;;;;;;;2.10;99.90;;;;;;4977644;28;19927;-89
2021/03/03 05:36:58;;;;;;;;;;;2.10;99.90;;;;;;4977815;28;19910;-89
2021/03/03 05:39:30;;;;;;;;;;;2.10;99.90;;;;;;5032697;28;19917;-89
2021/03/03 05:42:02;;;;;;;;;;;2.10;99.90;;;;;;4938384;29;19966;-89
2021/03/03 05:44:30;;;;;;;;;;;2.00;99.90;;;;;;4922156;29;20467;-88
2021/03/03 05:47:17;;;;;;;;;;;2.00;99.90;;;;;;4937238;29;19926;-89
2021/03/03 05:49:54;;;;;;;;;;;2.00;99.90;;;;;;4922790;29;19911;-88
2021/03/03 05:52:23;;;;;;;;;;;2.00;99.90;;;;;;4922202;29;19915;-89
2021/03/03 05:54:54;;;;;;;;;;;1.90;99.90;;;;;;4921397;29;19911;-89
2021/03/03 05:57:23;;;;;;;;;;;1.90;99.90;;;;;;4933636;29;19926;-89
2021/03/03 05:59:50;;;;;;;;;;;1.90;99.90;;;;;;4938938;29;19991;-89
2021/03/03 06:02:19;;;;;;;;;;;1.90;99.90;;;;;;4941073;29;19918;-90
2021/03/03 06:04:50;;;;;;;;;;;1.90;99.90;;;;;;4941975;29;19910;-87
2021/03/03 06:07:21;;;;;;;;;;;1.90;99.90;;;;;;4940811;29;19958;-86
2021/03/03 06:09:48;;;;;;;;;;;1.90;99.90;;;;;;4940932;29;20272;-88
2021/03/03 06:12:17;;;;;;;;;;;1.90;99.90;;;;;;4964431;28;19954;-91
2021/03/03 06:14:48;;;;;;;;;;;1.90;99.90;;;;;;5036317;28;20007;-90
2021/03/03 06:17:16;;;;;;;;;;;1.90;99.90;;;;;;5035519;28;20274;-89
2021/03/03 06:19:42;;;;;;;;;;;1.90;99.90;;;;;;5039578;28;19912;-89
2021/03/03 06:22:25;;;;;;;;;;;1.90;99.90;;;;;;5052995;28;19909;-90
2021/03/03 06:25:01;;;;;;;;;;;1.90;99.90;;;;;;5031512;28;19940;-90
2021/03/03 06:27:50;;;;;;;;;;;2.00;99.90;;;;;;5013347;28;20367;-90
2021/03/03 06:30:21;;;;;;;;;;;2.00;99.90;;;;;;4998131;28;19949;-89
2021/03/03 06:33:03;;;;;;;;;;;2.00;99.90;;;;;;5015197;28;19909;-89
2021/03/03 06:35:34;;;;;;;;;;;2.00;99.90;;;;;;5014845;28;19910;-90
2021/03/03 06:38:08;;;;;;;;;;;2.00;99.90;;;;;;5014704;28;20009;-89
2021/03/03 06:40:47;;;;;;;;;;;2.10;99.90;;;;;;4994444;28;20358;-88
2021/03/03 06:43:27;;;;;;;;;;;2.10;99.90;;;;;;4979067;28;19996;-89
2021/03/03 06:46:15;;;;;;;;;;;2.10;99.90;;;;;;4978650;28;19914;-88
2021/03/03 06:48:46;;;;;;;;;;;2.20;99.90;;;;;;4982335;28;19940;-88
2021/03/03 06:51:37;;;;;;;;;;;2.20;99.90;;;;;;4986058;28;19914;-89
2021/03/03 06:54:10;;;;;;;;;;;2.30;99.90;;;;;;4978660;28;20406;-90
2021/03/03 06:56:42;;;;;;;;;;;2.30;99.90;;;;;;4976388;28;19945;-89
2021/03/03 06:59:17;;;;;;;;;;;2.40;99.90;;;;;;4978225;28;19910;-89
2021/03/03 07:01:43;;;;;;;;;;;2.50;99.90;;;;;;4978474;28;19910;-89
2021/03/03 07:04:24;;;;;;;;;;;2.50;99.90;;;;;;4976989;28;19910;-87
2021/03/03 07:06:55;;;;;;;;;;;2.60;99.90;;;;;;4994493;28;20054;-88
2021/03/03 07:09:24;;;;;;;;;;;2.70;99.90;;;;;;4992848;28;19924;-88
2021/03/03 07:12:00;;;;;;;;;;;2.80;99.90;;;;;;4975910;28;19909;-88
2021/03/03 07:14:29;;;;;;;;;;;2.90;99.90;;;;;;4977902;28;19946;-89
2021/03/03 07:17:10;;;;;;;;;;;3.00;99.90;;;;;;4993528;28;20274;-89
2021/03/03 07:19:47;;;;;;;;;;;3.20;99.90;;;;;;4978324;28;20064;-90
2021/03/03 07:22:31;;;;;;;;;;;3.40;99.90;;;;;;4994178;28;19910;-89
2021/03/03 07:25:00;;;;;;;;;;;3.60;99.90;;;;;;4995760;28;19910;-89
2021/03/03 07:27:29;;;;;;;;;;;3.90;99.90;;;;;;4980124;28;20016;-89
2021/03/03 07:30:02;;;;;;;;;;;4.20;99.90;;;;;;4979224;28;19918;-88
2021/03/03 07:32:33;;;;;;;;;;;4.40;99.90;;;;;;4976590;28;20358;-89
2021/03/03 07:35:00;;;;;;;;;;;4.60;99.90;;;;;;4978418;28;19910;-89
2021/03/03 07:37:36;;;;;;;;;;;4.90;99.90;;;;;;4978104;28;20002;-90
2021/03/03 07:40:06;;;;;;;;;;;5.10;99.90;;;;;;4976446;28;20008;-90
2021/03/03 07:42:33;;;;;;;;;;;5.30;99.90;;;;;;4978168;28;19921;-89
2021/03/03 07:45:08;;;;;;;;;;;5.50;99.90;;;;;;4978107;28;20458;-90
2021/03/03 07:47:43;;;;;;;;;;;5.70;99.90;;;;;;4978806;28;20372;-90
2021/03/03 07:50:13;;;;;;;;;;;6.00;99.90;;;;;;4978475;28;19910;-90
2021/03/03 07:53:01;;;;;;;;;;;6.50;99.90;;;;;;4993262;28;20012;-90
2021/03/03 07:55:30;;;;;;;;;;;7.00;99.90;;;;;;4977002;28;20008;-90
2021/03/03 07:58:01;;;;;;;;;;;7.50;99.90;;;;;;4978338;28;19968;-90
2021/03/03 08:00:54;;;;;;;;;;;8.00;99.90;;;;;;4993374;28;20308;-89
2021/03/03 08:03:44;;;;;;;;;;;8.40;99.90;;;;;;4992851;28;19914;-90
2021/03/03 08:06:31;;;;;;;;;;;8.80;99.90;;;;;;4972605;28;19965;-91
2021/03/03 08:09:06;;;;;;;;;;;9.30;99.90;;;;;;4995970;28;19914;-91
2021/03/03 08:11:38;;;;;;;;;;;9.60;99.90;;;;;;4994798;28;19920;-90
2021/03/03 08:14:42;;;;;;;;;;;10.00;99.90;;;;;;4993315;28;19910;-90
2021/03/03 08:17:11;;;;;;;;;;;10.30;99.90;;;;;;4921145;29;20005;-90
2021/03/03 08:20:01;;;;;;;;;;;10.70;99.90;;;;;;4982568;28;19914;-90
2021/03/03 08:22:45;;;;;;;;;;;11.20;98.90;;;;;;4978741;28;19957;-89
2021/03/03 08:25:32;;;;;;;;;;;11.50;97.70;;;;;;4996368;28;19961;-91
2021/03/03 08:27:57;;;;;;;;;;;11.60;96.60;;;;;;4969924;28;20004;-91
2021/03/03 08:30:23;;;;;;;;;;;11.60;95.60;;;;;;5005341;28;19948;-90
2021/03/03 08:32:51;;;;;;;;;;;11.50;95.30;;;;;;5000595;28;19910;-91
2021/03/03 08:35:37;;;;;;;;;;;11.40;95.30;;;;;;4996448;28;20008;-90
2021/03/03 08:38:15;;;;;;;;;;;11.10;95.70;;;;;;4998303;28;20390;-91
2021/03/03 08:40:43;;;;;;;;;;;10.80;96.10;;;;;;4998882;28;19914;-90
2021/03/03 08:43:30;;;;;;;;;;;10.60;96.60;;;;;;4998196;28;19956;-90
2021/03/03 08:45:58;;;;;;;;;;;10.40;97.10;;;;;;4971718;28;20378;-91
2021/03/03 08:48:26;;;;;;;;;;;10.20;97.60;;;;;;4999783;28;19971;-90
2021/03/03 08:51:03;;;;;;;;;;;10.20;97.80;;;;;;4998427;28;19972;-91
2021/03/03 08:53:30;;;;;;;;;;;10.10;98.10;;;;;;4998100;28;19913;-91
2021/03/03 08:55:56;;;;;;;;;;;10.10;98.40;;;;;;4997720;28;19910;-90
2021/03/03 08:58:35;;;;;;;;;;;10.20;98.40;;;;;;5014583;28;19922;-90
2021/03/03 09:01:03;;;;;;;;;;;10.40;98.30;;;;;;5018027;28;19917;-90
2021/03/03 09:03:39;;;;;;;;;;;10.40;98.20;;;;;;4997311;28;19960;-90
2021/03/03 09:06:12;;;;;;;;;;;10.50;98.10;;;;;;4998830;28;19916;-90
2021/03/03 09:08:41;;;;;;;;;;;10.50;98.00;;;;;;4996502;28;19917;-91
2021/03/03 09:11:16;;;;;;;;;;;10.60;97.80;;;;;;4998714;28;19913;-90
2021/03/03 09:14:00;;;;;;;;;;;10.70;97.70;;;;;;5016544;28;19968;-89
2021/03/03 09:16:28;;;;;;;;;;;10.70;97.40;;;;;;5014281;28;19916;-89
2021/03/03 09:19:04;;;;;;;;;;;10.80;97.50;;;;;;5000840;28;19914;-90
2021/03/03 09:21:33;;;;;;;;;;;11.00;97.30;;;;;;5001101;28;20000;-90
2021/03/03 09:24:14;;;;;;;;;;;11.30;96.70;;;;;;4996636;28;19948;-90
2021/03/03 09:26:43;;;;;;;;;;;11.70;96.20;;;;;;5000484;28;19956;-91
2021/03/03 09:29:25;;;;;;;;;;;12.20;95.00;;;;;;4997992;28;19913;-91
2021/03/03 09:31:53;;;;;;;;;;;12.70;94.00;;;;;;5001294;28;19909;-91
2021/03/03 09:34:22;;;;;;;;;;;13.00;92.30;;;;;;4922829;29;20330;-91
2021/03/03 09:36:57;;;;;;;;;;;13.10;91.70;;;;;;4938193;29;19918;-91
2021/03/03 09:39:33;;;;;;;;;;;13.30;91.10;;;;;;4938696;29;19911;-90
2021/03/03 09:42:03;;;;;;;;;;;13.60;90.60;;;;;;4935743;29;19919;-91
2021/03/03 09:44:52;;;;;;;;;;;13.80;89.20;;;;;;4914660;29;19911;-90
2021/03/03 09:47:28;;;;;;;;;;;14.30;86.10;;;;;;4900366;29;20013;-91
2021/03/03 09:49:57;;;;;;;;;;;14.80;83.30;;;;;;4903689;29;19922;-90
2021/03/03 09:52:26;;;;;;;;;;;15.20;79.30;;;;;;4900389;29;19915;-91
2021/03/03 09:54:54;;;;;;;;;;;15.30;79.10;;;;;;4880822;29;20385;-91
2021/03/03 09:57:43;;;;;;;;;;;15.30;78.70;;;;;;4875144;29;19931;-90
2021/03/03 10:00:12;;;;;;;;;;;15.10;78.20;;;;;;4863315;29;20294;-91
2021/03/03 10:02:43;;;;;;;;;;;14.80;79.00;;;;;;4862068;29;20010;-90
2021/03/03 10:05:15;;;;;;;;;;;14.60;79.70;;;;;;4867409;29;19923;-90
2021/03/03 10:07:43;;;;;;;;;;;14.40;80.10;;;;;;4903439;29;19919;-91
2021/03/03 10:10:18;;;;;;;;;;;14.20;80.60;;;;;;4904706;29;19911;-90
2021/03/03 10:12:46;;;;;;;;;;;14.10;80.90;;;;;;4923714;29;20400;-90
2021/03/03 10:15:16;;;;;;;;;;;13.80;81.10;;;;;;4913542;29;19914;-90
2021/03/03 10:17:47;;;;;;;;;;;13.70;81.60;;;;;;4956021;29;19977;-90
2021/03/03 10:20:41;;;;;;;;;;;13.60;82.20;;;;;;4957312;29;19910;-92
2021/03/03 10:23:16;;;;;;;;;;;13.50;82.40;;;;;;4956770;29;19919;-91
2021/03/03 10:25:46;;;;;;;;;;;13.40;82.60;;;;;;4971876;28;19910;-91
2021/03/03 10:28:15;;;;;;;;;;;13.30;83.20;;;;;;4980348;28;20399;-91
2021/03/03 10:30:42;;;;;;;;;;;13.30;83.50;;;;;;4980435;28;19960;-91
2021/03/03 10:33:26;;;;;;;;;;;13.20;83.60;;;;;;4998133;28;19917;-92
2021/03/03 10:36:04;;;;;;;;;;;13.20;84.30;;;;;;4996635;28;19914;-92
2021/03/03 10:38:35;;;;;;;;;;;13.20;84.60;;;;;;4982491;28;19914;-92
2021/03/03 10:41:02;;;;;;;;;;;13.30;84.70;;;;;;5001362;28;19910;-92
2021/03/03 10:43:31;;;;;;;;;;;13.40;84.80;;;;;;5000618;28;19997;-91
2021/03/03 10:46:10;;;;;;;;;;;13.50;84.80;;;;;;5004768;28;20001;-91
2021/03/03 10:48:38;;;;;;;;;;;13.60;84.30;;;;;;4997232;28;20345;-91
2021/03/03 10:51:09;;;;;;;;;;;13.60;84.60;;;;;;4980318;28;19945;-91
2021/03/03 10:53:54;;;;;;;;;;;13.70;84.00;;;;;;4996540;28;20016;-91
2021/03/03 10:56:49;;;;;;;;;;;13.80;83.70;;;;;;5002162;28;20004;-91
2021/03/03 10:59:24;;;;;;;;;;;14.00;82.90;;;;;;5019712;28;19916;-91
2021/03/03 11:01:53;;;;;;;;;;;14.30;82.10;;;;;;5018583;28;19910;-89
2021/03/03 11:04:40;;;;;;;;;;;14.50;81.80;;;;;;5035419;28;19909;-92
2021/03/03 11:07:16;;;;;;;;;;;14.90;81.10;;;;;;5001858;28;19913;-91
2021/03/03 11:09:42;;;;;;;;;;;15.50;79.40;;;;;;5019305;28;19940;-92
2021/03/03 11:12:10;;;;;;;;;;;15.80;77.80;;;;;;5018147;28;19910;-91
2021/03/03 11:14:38;;;;;;;;;;;16.10;76.50;;;;;;5013966;28;19910;-91
2021/03/03 11:17:10;;;;;;;;;;;16.50;75.50;;;;;;5017517;28;19917;-91
2021/03/03 11:19:35;;;;;;;;;;;17.20;73.90;;;;;;5017603;28;19909;-91
2021/03/03 11:22:12;;;;;;;;;;;18.00;71.30;;;;;;5000566;28;20003;-91
2021/03/03 11:24:55;;;;;;;;;;;18.60;68.00;;;;;;5023061;28;19920;-91
2021/03/03 11:27:28;;;;;;;;;;;19.00;65.10;;;;;;5025867;28;19914;-90
2021/03/03 11:30:05;;;;;;;;;;;19.10;64.90;;;;;;5026697;28;19914;-90
2021/03/03 11:32:35;;;;;;;;;;;19.20;63.00;;;;;;5031092;28;20069;-89
2021/03/03 11:35:01;;;;;;;;;;;19.70;62.80;;;;;;5031816;28;19913;-91
2021/03/03 11:37:30;;;;;;;;;;;20.20;60.70;;;;;;5030278;28;19916;-91
2021/03/03 11:40:00;;;;;;;;;;;20.50;58.90;;;;;;5029632;28;19920;-91
2021/03/03 11:42:33;;;;;;;;;;;20.60;58.00;;;;;;5018863;28;19941;-91
2021/03/03 11:45:08;;;;;;;;;;;20.60;57.30;;;;;;5007052;28;19922;-92
2021/03/03 11:47:36;;;;;;;;;;;20.80;57.10;;;;;;5019971;28;19924;-92
2021/03/03 11:50:05;;;;;;;;;;;21.00;56.40;;;;;;5018624;28;19924;-91
2021/03/03 11:52:43;;;;;;;;;;;20.70;56.50;;;;;;5023533;28;19933;-91
2021/03/03 11:55:13;;;;;;;;;;;21.00;56.90;;;;;;5004147;28;19972;-92
2021/03/03 11:58:00;;;;;;;;;;;21.20;55.70;;;;;;5016584;28;20390;-91
2021/03/03 12:00:25;;;;;;;;;;;21.40;54.80;;;;;;5018325;28;19913;-93
2021/03/03 12:03:01;;;;;;;;;;;21.60;54.40;;;;;;5019531;28;19913;-93
2021/03/03 12:05:32;;;;;;;;;;;21.60;54.20;;;;;;5021879;28;19910;-92
2021/03/03 12:08:04;;;;;;;;;;;21.30;53.50;;;;;;5025631;28;19917;-92
2021/03/03 12:10:38;;;;;;;;;;;20.90;54.00;;;;;;5019243;28;20274;-92
2021/03/03 12:13:09;;;;;;;;;;;20.90;54.50;;;;;;5022002;28;19917;-91
2021/03/03 12:15:41;;;;;;;;;;;21.10;53.90;;;;;;5021366;28;19910;-92
2021/03/03 12:18:29;;;;;;;;;;;21.30;53.30;;;;;;4981490;28;20386;-92
2021/03/03 12:20:57;;;;;;;;;;;21.20;52.90;;;;;;4965282;28;20263;-91
2021/03/03 12:23:24;;;;;;;;;;;21.10;52.60;;;;;;4981159;28;20016;-92
2021/03/03 12:25:50;;;;;;;;;;;21.00;52.40;;;;;;4962505;29;19910;-93
2021/03/03 12:28:19;;;;;;;;;;;20.70;52.70;;;;;;4961865;29;19919;-91
2021/03/03 12:30:46;;;;;;;;;;;20.50;53.20;;;;;;4958772;29;20363;-91
2021/03/03 12:33:15;;;;;;;;;;;20.20;53.70;;;;;;4943537;29;19914;-92
2021/03/03 12:35:43;;;;;;;;;;;19.90;53.90;;;;;;4940281;29;20342;-90
2021/03/03 12:38:15;;;;;;;;;;;19.80;54.10;;;;;;4942413;29;19911;-91
2021/03/03 12:40:47;;;;;;;;;;;19.80;54.20;;;;;;4946231;29;19918;-92
2021/03/03 12:43:16;;;;;;;;;;;19.70;54.30;;;;;;4941492;29;19910;-94
2021/03/03 12:45:52;;;;;;;;;;;19.70;54.00;;;;;;4947576;29;19910;-91
2021/03/03 12:48:19;;;;;;;;;;;19.40;54.40;;;;;;4948803;28;19919;-92
2021/03/03 12:50:48;;;;;;;;;;;19.00;55.00;;;;;;5016287;28;19976;-92
2021/03/03 12:53:17;;;;;;;;;;;18.70;55.80;;;;;;5015285;28;19936;-91
2021/03/03 12:55:48;;;;;;;;;;;18.70;56.30;;;;;;5017298;28;19902;-92
2021/03/03 12:58:22;;;;;;;;;;;18.80;56.20;;;;;;5015140;28;19921;-92
2021/03/03 13:01:04;;;;;;;;;;;18.90;56.20;;;;;;5000985;28;19942;-92
2021/03/03 13:03:30;;;;;;;;;;;19.20;55.90;;;;;;4994810;28;19910;-91
2021/03/03 13:05:58;;;;;;;;;;;19.70;55.40;;;;;;4996134;28;20378;-91
2021/03/03 13:08:34;;;;;;;;;;;20.10;54.90;;;;;;4998018;28;20012;-92
2021/03/03 13:11:03;;;;;;;;;;;20.40;53.80;;;;;;4943860;29;19915;-91
2021/03/03 13:13:33;;;;;;;;;;;20.40;53.30;;;;;;4938226;29;19971;-92
2021/03/03 13:16:16;;;;;;;;;;;20.20;53.70;;;;;;4940384;29;19949;-93
2021/03/03 13:18:55;;;;;;;;;;;;;;;;;;;;;
2021/03/03 13:21:23;;;;;;;;;;;20.00;54.00;;;;;;4939779;29;19930;-90
2021/03/03 13:23:49;;;;;;;;;;;20.00;54.10;;;;;;4935744;29;20304;-93
2021/03/03 13:26:20;;;;;;;;;;;20.20;54.10;;;;;;4939910;29;19918;-91
2021/03/03 13:28:48;;;;;;;;;;;20.20;54.00;;;;;;4939621;29;19919;-91
2021/03/03 13:31:16;;;;;;;;;;;20.50;53.70;;;;;;4955239;29;20021;-93
2021/03/03 13:33:46;;;;;;;;;;;20.70;53.10;;;;;;4927732;29;19914;-91
2021/03/03 13:36:17;;;;;;;;;;;20.60;52.90;;;;;;4927327;29;19918;-93
2021/03/03 13:38:43;;;;;;;;;;;20.40;52.90;;;;;;4940325;29;19910;-90
2021/03/03 13:41:13;;;;;;;;;;;20.30;53.40;;;;;;4940657;29;20273;-91
2021/03/03 13:44:01;;;;;;;;;;;20.10;53.70;;;;;;4941102;29;19918;-92
2021/03/03 13:46:27;;;;;;;;;;;19.90;54.00;;;;;;4936170;29;19911;-92
2021/03/03 13:49:07;;;;;;;;;;;20.00;54.30;;;;;;4990517;28;19944;-92
2021/03/03 13:51:33;;;;;;;;;;;20.10;54.90;;;;;;5002117;28;19910;-93
2021/03/03 13:54:07;;;;;;;;;;;20.10;54.30;;;;;;5000807;28;20317;-92
2021/03/03 13:56:33;;;;;;;;;;;20.10;54.20;;;;;;4963172;28;19920;-90
2021/03/03 13:58:59;;;;;;;;;;;20.20;54.20;;;;;;4965040;28;19961;-91
2021/03/03 14:01:28;;;;;;;;;;;20.20;54.00;;;;;;4966907;28;19933;-92
2021/03/03 14:04:04;;;;;;;;;;;20.30;54.20;;;;;;4989016;28;19941;-93
2021/03/03 14:06:39;;;;;;;;;;;20.30;54.10;;;;;;4978386;28;19918;-93
2021/03/03 14:09:08;;;;;;;;;;;20.40;53.60;;;;;;4963766;28;19933;-91
2021/03/03 14:11:37;;;;;;;;;;;20.30;53.90;;;;;;4958288;28;20453;-92
2021/03/03 14:14:09;;;;;;;;;;;20.40;54.10;;;;;;4923998;29;19915;-92
2021/03/03 14:16:54;;;;;;;;;;;20.20;53.20;;;;;;4942658;29;19911;-93
2021/03/03 14:19:31;;;;;;;;;;;19.80;54.10;;;;;;4921903;29;19985;-92
2021/03/03 14:21:57;;;;;;;;;;;19.60;54.70;;;;;;4919042;29;19911;-92
2021/03/03 14:24:28;;;;;;;;;;;19.50;54.70;;;;;;4919915;29;19966;-92
2021/03/03 14:26:54;;;;;;;;;;;19.30;55.10;;;;;;4926530;29;19925;-91
2021/03/03 14:29:22;;;;;;;;;;;19.10;55.40;;;;;;4952300;29;19918;-92
2021/03/03 14:31:51;;;;;;;;;;;19.20;56.00;;;;;;4958457;29;19910;-90
2021/03/03 14:34:17;;;;;;;;;;;19.20;56.20;;;;;;4957806;29;19971;-90
2021/03/03 14:36:47;;;;;;;;;;;19.30;56.10;;;;;;4950898;29;19918;-93
2021/03/03 14:39:16;;;;;;;;;;;19.20;55.80;;;;;;4920042;29;19911;-91
2021/03/03 14:41:41;;;;;;;;;;;19.00;56.20;;;;;;4920004;29;19915;-91
2021/03/03 14:44:12;;;;;;;;;;;18.90;56.60;;;;;;4939386;28;20030;-91
2021/03/03 14:46:45;;;;;;;;;;;18.80;56.90;;;;;;4977105;28;19914;-92
2021/03/03 14:49:11;;;;;;;;;;;18.80;57.20;;;;;;4960932;28;19967;-91
2021/03/03 14:51:44;;;;;;;;;;;18.70;56.90;;;;;;4958066;28;19910;-92
2021/03/03 14:54:10;;;;;;;;;;;18.50;57.00;;;;;;4957442;28;19918;-90
2021/03/03 14:56:36;;;;;;;;;;;18.30;57.60;;;;;;4957221;28;19918;-91
2021/03/03 14:59:10;;;;;;;;;;;18.20;57.90;;;;;;4991233;28;20021;-91